Time;durP1;ratioP1;P1;durP2;ratioP2;P2;SDS_P1;SDS_P2;PMS_P1;PMS_P2;Temp;Humidity;BMP_temperature;BMP_pressure;BME280_temperature;BME280_humidity;BME280_pressure;Samples;Min_cycle;Max_cycle;Signal;HPM_P1;HPM_P2
2021/12/20 00:00:42;;;;;;;0.50;0.50;;;20.90;57.80;;;;;;4975883;28;20030;-67
2021/12/20 00:03:08;;;;;;;0.60;0.60;;;20.90;57.80;;;;;;4997950;28;20026;-67
2021/12/20 00:05:34;;;;;;;0.77;0.77;;;20.80;57.80;;;;;;4991994;28;20026;-67
2021/12/20 00:07:59;;;;;;;1.10;0.60;;;20.90;57.80;;;;;;4991651;28;20377;-67
2021/12/20 00:10:25;;;;;;;0.52;0.52;;;20.80;57.80;;;;;;4991690;28;20034;-67
2021/12/20 00:12:51;;;;;;;0.70;0.70;;;20.90;57.80;;;;;;4992051;28;20026;-67
2021/12/20 00:15:17;;;;;;;1.08;0.70;;;20.90;57.90;;;;;;4992748;28;20411;-67
2021/12/20 00:17:43;;;;;;;0.70;0.63;;;20.90;57.90;;;;;;4991753;28;20133;-67
2021/12/20 00:20:09;;;;;;;0.50;0.50;;;20.90;57.90;;;;;;4992846;28;20026;-67
2021/12/20 00:22:35;;;;;;;0.63;0.60;;;20.90;57.90;;;;;;4992514;28;20053;-66
2021/12/20 00:25:00;;;;;;;2.42;0.52;;;20.90;57.80;;;;;;4991756;28;20023;-66
2021/12/20 00:27:26;;;;;;;0.50;0.50;;;20.90;57.90;;;;;;4991635;28;20018;-67
2021/12/20 00:29:52;;;;;;;1.25;0.80;;;20.90;57.90;;;;;;4991666;28;20507;-66
2021/12/20 00:32:18;;;;;;;0.52;0.52;;;20.90;57.90;;;;;;4992860;28;20061;-67
2021/12/20 00:34:43;;;;;;;0.70;0.70;;;20.90;57.90;;;;;;4993014;28;20038;-67
2021/12/20 00:42:38;;;;;;;0.40;0.40;;;20.90;58.00;;;;;;4991912;28;20076;-67
2021/12/20 00:45:04;;;;;;;1.30;0.50;;;20.90;58.00;;;;;;4992520;28;20034;-67
2021/12/20 00:47:30;;;;;;;0.93;0.50;;;20.90;58.00;;;;;;4992771;28;20051;-67
2021/12/20 00:49:56;;;;;;;0.70;0.68;;;20.90;58.00;;;;;;4975316;28;20477;-67
2021/12/20 00:52:21;;;;;;;0.82;0.70;;;20.90;57.90;;;;;;4992282;28;20030;-67
2021/12/20 00:54:47;;;;;;;0.35;0.35;;;20.90;58.00;;;;;;4992607;28;20039;-67
2021/12/20 00:57:13;;;;;;;0.93;0.70;;;20.90;58.00;;;;;;4991400;28;20505;-67
2021/12/20 00:59:38;;;;;;;0.43;0.40;;;20.90;58.00;;;;;;4991294;28;20037;-67
2021/12/20 01:02:04;;;;;;;0.75;0.55;;;20.90;58.00;;;;;;4993434;28;20026;-67
2021/12/20 01:04:29;;;;;;;0.50;0.50;;;20.90;58.00;;;;;;5011850;28;20032;-67
2021/12/20 01:06:55;;;;;;;0.43;0.43;;;20.90;58.00;;;;;;5011865;28;20121;-67
2021/12/20 01:09:21;;;;;;;0.40;0.40;;;20.90;58.00;;;;;;5012129;28;20030;-67
2021/12/20 01:11:51;;;;;;;0.75;0.70;;;20.90;58.00;;;;;;5010990;28;20065;-67
2021/12/20 01:14:23;;;;;;;0.50;0.50;;;20.90;58.00;;;;;;5012002;28;20033;-67
2021/12/20 01:16:49;;;;;;;0.65;0.52;;;20.90;58.10;;;;;;5012114;28;20105;-67
2021/12/20 01:19:15;;;;;;;0.57;0.57;;;20.90;58.00;;;;;;5011978;28;20081;-67
2021/12/20 01:21:40;;;;;;;1.30;0.50;;;20.90;58.00;;;;;;5010653;28;20018;-67
2021/12/20 01:24:06;;;;;;;0.70;0.70;;;20.90;58.10;;;;;;5010845;28;20026;-67
2021/12/20 01:26:31;;;;;;;1.30;0.40;;;20.90;58.10;;;;;;5012082;28;20022;-67
2021/12/20 01:28:57;;;;;;;1.00;0.65;;;20.90;58.20;;;;;;5011443;28;20046;-67
2021/12/20 01:31:23;;;;;;;0.60;0.60;;;20.90;58.10;;;;;;5015541;28;20029;-67
2021/12/20 01:33:48;;;;;;;0.50;0.50;;;20.90;58.10;;;;;;5014354;28;20033;-67
2021/12/20 01:36:14;;;;;;;0.60;0.60;;;20.90;58.10;;;;;;5013991;28;20029;-67
2021/12/20 01:38:39;;;;;;;0.55;0.55;;;20.90;58.10;;;;;;5015301;28;20033;-67
2021/12/20 01:41:06;;;;;;;0.77;0.40;;;20.90;58.10;;;;;;5015295;28;20026;-67
2021/12/20 01:43:32;;;;;;;1.42;0.50;;;20.90;58.20;;;;;;5015264;28;20076;-67
2021/12/20 01:45:59;;;;;;;0.70;0.70;;;20.90;58.10;;;;;;5013882;28;20033;-67
2021/12/20 01:48:25;;;;;;;2.90;0.50;;;20.90;58.10;;;;;;5014954;28;20041;-66
2021/12/20 01:51:18;;;;;;;0.55;0.52;;;20.90;58.20;;;;;;5015196;28;20096;-67
2021/12/20 01:53:38;;;;;;;0.50;0.50;;;20.90;58.20;;;;;;5012816;28;20026;-67
2021/12/20 01:56:04;;;;;;;0.57;0.57;;;21.00;58.30;;;;;;5013952;28;20507;-67
2021/12/20 01:58:30;;;;;;;0.40;0.40;;;20.90;58.30;;;;;;5013555;28;20084;-67
2021/12/20 02:03:38;;;;;;;0.85;0.47;;;21.00;58.30;;;;;;5001568;28;20061;-67
2021/12/20 02:06:08;;;;;;;0.50;0.50;;;20.90;58.30;;;;;;4978075;28;20042;-67
2021/12/20 02:08:33;;;;;;;1.02;0.47;;;20.90;58.30;;;;;;4994281;28;20120;-67
2021/12/20 02:11:09;;;;;;;1.02;0.50;;;21.00;58.30;;;;;;4995051;28;20508;-67
2021/12/20 02:13:35;;;;;;;0.40;0.40;;;21.00;59.30;;;;;;4995093;28;20031;-67
2021/12/20 02:16:01;;;;;;;0.90;0.60;;;20.90;58.30;;;;;;4993934;28;20052;-67
2021/12/20 02:18:27;;;;;;;0.43;0.43;;;21.00;58.30;;;;;;4993394;28;20473;-67
2021/12/20 02:20:53;;;;;;;1.05;0.60;;;21.00;58.30;;;;;;4994039;28;20037;-67
2021/12/20 02:23:18;;;;;;;0.65;0.52;;;20.90;58.30;;;;;;4994837;28;20026;-67
2021/12/20 02:25:44;;;;;;;0.60;0.60;;;21.00;58.30;;;;;;4993492;28;20014;-67
2021/12/20 02:28:11;;;;;;;0.60;0.60;;;20.90;58.30;;;;;;4993707;28;20077;-67
2021/12/20 02:38:45;;;;;;;0.85;0.40;;;20.90;58.40;;;;;;4994871;28;20026;-67
2021/12/20 02:41:16;;;;;;;0.60;0.60;;;20.90;58.40;;;;;;4992410;28;20019;-67
2021/12/20 02:43:50;;;;;;;0.47;0.40;;;20.90;58.40;;;;;;4994667;28;20085;-67
2021/12/20 02:46:27;;;;;;;0.50;0.50;;;20.90;58.40;;;;;;5012996;28;20097;-67
2021/12/20 02:48:53;;;;;;;0.63;0.40;;;20.90;58.50;;;;;;5012916;28;20048;-67
2021/12/20 02:51:18;;;;;;;0.70;0.50;;;20.90;58.40;;;;;;5012582;28;20507;-66
2021/12/20 02:53:44;;;;;;;0.47;0.43;;;20.90;58.50;;;;;;5012743;28;20088;-66
2021/12/20 02:56:10;;;;;;;0.43;0.43;;;20.90;58.50;;;;;;5013969;28;20476;-67
2021/12/20 02:58:35;;;;;;;0.47;0.47;;;20.90;58.50;;;;;;5013670;28;20025;-67
2021/12/20 03:01:01;;;;;;;0.60;0.60;;;20.90;58.40;;;;;;5013449;28;20018;-66
2021/12/20 03:03:26;;;;;;;0.40;0.40;;;20.90;58.50;;;;;;5013546;28;20104;-66
2021/12/20 03:05:52;;;;;;;0.40;0.40;;;20.90;58.50;;;;;;5012197;28;20507;-67
2021/12/20 03:08:21;;;;;;;0.43;0.40;;;21.00;58.50;;;;;;4996265;28;20116;-67
2021/12/20 03:10:47;;;;;;;0.47;0.47;;;20.90;58.40;;;;;;5012400;28;20088;-67
2021/12/20 03:13:13;;;;;;;0.47;0.47;;;20.90;58.50;;;;;;5013606;28;20030;-67
2021/12/20 03:15:41;;;;;;;0.68;0.30;;;20.90;58.50;;;;;;5013020;28;20057;-67
2021/12/20 03:18:06;;;;;;;0.40;0.40;;;20.90;58.50;;;;;;5012506;28;20018;-67
2021/12/20 03:20:32;;;;;;;0.65;0.65;;;20.90;58.50;;;;;;5013257;28;20080;-67
2021/12/20 03:22:58;;;;;;;1.25;0.40;;;20.90;58.50;;;;;;5013488;28;20025;-67
2021/12/20 03:25:24;;;;;;;0.40;0.40;;;20.90;58.50;;;;;;4995900;28;20030;-67
2021/12/20 03:27:49;;;;;;;0.43;0.43;;;20.90;58.50;;;;;;5013245;28;20018;-67
2021/12/20 03:30:16;;;;;;;0.50;0.50;;;20.90;58.50;;;;;;5011737;28;20274;-67
2021/12/20 03:32:41;;;;;;;0.50;0.50;;;20.90;58.50;;;;;;4995859;28;20029;-67
2021/12/20 03:35:08;;;;;;;0.50;0.50;;;20.90;58.50;;;;;;5012191;28;20026;-67
2021/12/20 03:37:33;;;;;;;0.60;0.57;;;20.90;58.50;;;;;;4995602;28;20026;-66
2021/12/20 03:39:59;;;;;;;1.08;0.60;;;20.90;58.60;;;;;;5013059;28;20033;-67
2021/12/20 03:42:27;;;;;;;1.27;0.57;;;20.90;58.50;;;;;;5013027;28;20381;-67
2021/12/20 03:44:53;;;;;;;0.65;0.55;;;20.90;58.50;;;;;;5001502;28;20061;-67
2021/12/20 03:47:19;;;;;;;0.43;0.43;;;20.90;58.50;;;;;;4992091;28;20068;-67
2021/12/20 03:49:44;;;;;;;0.40;0.40;;;20.90;58.60;;;;;;4993269;28;20034;-66
2021/12/20 03:52:10;;;;;;;0.50;0.40;;;20.90;58.60;;;;;;4991886;28;20408;-67
2021/12/20 03:54:36;;;;;;;0.50;0.50;;;20.90;58.50;;;;;;4991947;28;20112;-67
2021/12/20 03:57:03;;;;;;;0.45;0.45;;;20.90;58.50;;;;;;4992066;28;20031;-67
2021/12/20 03:59:29;;;;;;;0.50;0.50;;;20.90;58.60;;;;;;4991650;28;20161;-67
2021/12/20 04:01:55;;;;;;;0.40;0.40;;;20.90;58.60;;;;;;4992940;28;20069;-67
2021/12/20 04:04:21;;;;;;;1.05;0.40;;;20.90;58.60;;;;;;5011331;28;20083;-67
2021/12/20 04:06:47;;;;;;;0.40;0.40;;;20.90;58.50;;;;;;5011458;28;20490;-67
2021/12/20 04:09:12;;;;;;;0.95;0.50;;;20.90;58.60;;;;;;5011609;28;20026;-67
2021/12/20 04:11:38;;;;;;;0.40;0.40;;;20.90;58.60;;;;;;5012553;28;20495;-67
2021/12/20 04:14:04;;;;;;;0.50;0.50;;;20.90;58.60;;;;;;5012383;28;20022;-67
2021/12/20 04:16:29;;;;;;;1.65;0.68;;;20.90;58.50;;;;;;5012714;28;20048;-67
2021/12/20 04:18:55;;;;;;;0.40;0.40;;;20.90;58.60;;;;;;5012564;28;20058;-67
2021/12/20 04:21:21;;;;;;;0.40;0.40;;;20.90;58.60;;;;;;4994953;28;20026;-67
2021/12/20 04:23:47;;;;;;;2.45;0.73;;;20.90;58.60;;;;;;5011189;28;20028;-67
2021/12/20 04:26:12;;;;;;;0.50;0.50;;;20.90;58.70;;;;;;5011509;28;20022;-67
2021/12/20 04:28:39;;;;;;;0.50;0.50;;;20.90;58.60;;;;;;5010930;28;20030;-67
2021/12/20 04:31:04;;;;;;;0.65;0.40;;;20.90;58.60;;;;;;5011292;28;20018;-67
2021/12/20 04:33:30;;;;;;;0.50;0.43;;;20.90;58.70;;;;;;5011347;28;20476;-67
2021/12/20 04:35:56;;;;;;;0.57;0.57;;;20.90;58.70;;;;;;5012355;28;20101;-67
2021/12/20 04:38:22;;;;;;;0.40;0.40;;;20.90;58.70;;;;;;5012614;28;20148;-67
2021/12/20 04:40:48;;;;;;;0.40;0.40;;;20.90;58.70;;;;;;5011203;28;20404;-67
2021/12/20 04:43:14;;;;;;;0.40;0.40;;;20.90;58.70;;;;;;5010953;28;20037;-66
2021/12/20 04:45:39;;;;;;;0.43;0.40;;;20.90;58.70;;;;;;5012040;28;20465;-67
2021/12/20 04:48:05;;;;;;;0.50;0.50;;;20.90;58.70;;;;;;5012288;28;20488;-67
2021/12/20 04:50:31;;;;;;;0.47;0.47;;;20.90;58.70;;;;;;5010972;28;20128;-66
2021/12/20 04:52:58;;;;;;;1.50;0.50;;;20.90;58.70;;;;;;5012198;28;20056;-66
2021/12/20 04:55:24;;;;;;;0.50;0.50;;;20.90;58.80;;;;;;4995145;28;20052;-67
2021/12/20 04:57:49;;;;;;;0.43;0.40;;;20.90;58.70;;;;;;5010532;28;20455;-67
2021/12/20 05:00:18;;;;;;;0.32;0.32;;;20.90;58.70;;;;;;5010966;28;20104;-67
2021/12/20 05:02:45;;;;;;;0.40;0.40;;;20.90;58.70;;;;;;4988783;28;20134;-66
2021/12/20 05:05:11;;;;;;;0.45;0.45;;;20.90;58.80;;;;;;4994172;28;20068;-66
2021/12/20 05:07:38;;;;;;;0.40;0.40;;;20.80;58.70;;;;;;4996278;28;20078;-66
2021/12/20 05:10:11;;;;;;;0.50;0.43;;;20.80;58.80;;;;;;4995111;28;20117;-67
2021/12/20 05:12:37;;;;;;;0.40;0.40;;;20.90;58.90;;;;;;4994884;28;20038;-67
2021/12/20 05:15:03;;;;;;;0.40;0.40;;;20.80;58.80;;;;;;4996248;28;20061;-67
2021/12/20 05:17:29;;;;;;;0.40;0.40;;;20.80;58.80;;;;;;4996225;28;20079;-66
2021/12/20 05:19:55;;;;;;;0.50;0.40;;;20.80;58.80;;;;;;4995991;28;20551;-67
2021/12/20 05:22:21;;;;;;;0.40;0.40;;;20.80;58.80;;;;;;4996173;28;20026;-66
2021/12/20 05:24:46;;;;;;;0.40;0.40;;;20.80;58.80;;;;;;4978387;28;20033;-66
2021/12/20 05:27:12;;;;;;;0.60;0.35;;;20.80;58.80;;;;;;4995763;28;20027;-67
2021/12/20 05:29:38;;;;;;;0.30;0.30;;;20.80;58.80;;;;;;4994890;28;20023;-67
2021/12/20 05:32:06;;;;;;;0.40;0.40;;;20.80;58.80;;;;;;4978636;28;20030;-67
2021/12/20 05:34:31;;;;;;;0.43;0.40;;;20.80;59.90;;;;;;4994827;28;20028;-67
2021/12/20 05:36:57;;;;;;;0.50;0.50;;;20.80;58.90;;;;;;4994457;28;20034;-67
2021/12/20 05:39:22;;;;;;;0.50;0.50;;;20.80;58.90;;;;;;4995670;28;20023;-67
2021/12/20 05:41:48;;;;;;;1.15;0.40;;;20.80;58.80;;;;;;4994117;28;20065;-67
2021/12/20 05:44:14;;;;;;;0.63;0.43;;;20.80;58.90;;;;;;4999083;28;20065;-67
2021/12/20 05:46:39;;;;;;;0.40;0.38;;;20.80;58.90;;;;;;5015316;28;20026;-67
2021/12/20 05:49:05;;;;;;;0.40;0.35;;;20.80;58.90;;;;;;5014917;28;20069;-67
2021/12/20 05:51:31;;;;;;;0.40;0.40;;;20.80;58.90;;;;;;5015173;28;20022;-67
2021/12/20 05:53:56;;;;;;;0.30;0.30;;;20.80;58.90;;;;;;5013702;28;20025;-66
2021/12/20 05:56:22;;;;;;;0.35;0.35;;;20.80;58.90;;;;;;5013741;28;20036;-67
2021/12/20 05:58:47;;;;;;;0.70;0.40;;;20.80;58.90;;;;;;5013671;28;20104;-67
2021/12/20 06:01:13;;;;;;;0.30;0.30;;;20.80;59.00;;;;;;5014906;28;20488;-67
2021/12/20 06:03:39;;;;;;;0.40;0.40;;;20.80;58.90;;;;;;5013631;28;20022;-67
2021/12/20 06:06:04;;;;;;;0.65;0.47;;;20.80;59.00;;;;;;5014622;28;20129;-67
2021/12/20 06:08:30;;;;;;;0.30;0.30;;;20.80;58.90;;;;;;5014839;28;20017;-67
2021/12/20 06:10:56;;;;;;;0.38;0.38;;;20.80;59.00;;;;;;5014304;28;20018;-66
2021/12/20 06:13:21;;;;;;;0.68;0.40;;;20.80;59.00;;;;;;5014869;28;20029;-67
2021/12/20 06:15:47;;;;;;;0.40;0.40;;;20.80;59.00;;;;;;5014407;28;20038;-67
2021/12/20 06:18:13;;;;;;;0.30;0.30;;;20.80;59.00;;;;;;5013284;28;20029;-67
2021/12/20 06:20:42;;;;;;;0.50;0.50;;;20.80;59.00;;;;;;5014484;28;20042;-67
2021/12/20 06:23:08;;;;;;;0.40;0.40;;;20.80;59.00;;;;;;5013294;28;20025;-66
2021/12/20 06:25:33;;;;;;;1.58;0.30;;;20.80;59.00;;;;;;5012905;28;20026;-66
2021/12/20 06:27:59;;;;;;;0.63;0.40;;;20.80;59.00;;;;;;5014350;28;20052;-66
2021/12/20 06:30:25;;;;;;;0.40;0.40;;;20.80;59.00;;;;;;5009686;28;20076;-66
2021/12/20 06:32:51;;;;;;;1.20;0.40;;;20.80;59.00;;;;;;5013131;28;20029;-66
2021/12/20 06:35:16;;;;;;;1.02;0.40;;;20.80;59.10;;;;;;4997269;28;20053;-66
2021/12/20 06:37:43;;;;;;;0.43;0.40;;;20.80;59.20;;;;;;5006397;28;20071;-66
2021/12/20 06:40:10;;;;;;;0.73;0.57;;;20.80;59.10;;;;;;4995414;28;20044;-67
2021/12/20 06:42:37;;;;;;;0.47;0.30;;;20.80;60.10;;;;;;5014842;28;20022;-66
2021/12/20 06:45:05;;;;;;;0.50;0.50;;;20.80;59.10;;;;;;5010069;28;20033;-66
2021/12/20 06:47:31;;;;;;;0.95;0.45;;;20.80;59.10;;;;;;5014078;28;20033;-67
2021/12/20 06:49:56;;;;;;;0.38;0.38;;;20.80;59.20;;;;;;5014496;28;20033;-67
2021/12/20 06:52:22;;;;;;;0.93;0.47;;;20.80;59.10;;;;;;5013191;28;20044;-66
2021/12/20 06:54:49;;;;;;;0.52;0.40;;;20.80;59.20;;;;;;5014139;28;20088;-66
2021/12/20 06:57:15;;;;;;;0.40;0.40;;;20.80;59.10;;;;;;5014389;28;20103;-67
2021/12/20 06:59:40;;;;;;;0.43;0.40;;;20.80;59.10;;;;;;5013004;28;20492;-67
2021/12/20 07:02:06;;;;;;;0.50;0.50;;;20.80;59.10;;;;;;5014154;28;20097;-66
2021/12/20 07:04:32;;;;;;;1.27;0.85;;;20.80;59.20;;;;;;4996890;28;20022;-66
2021/12/20 07:06:57;;;;;;;0.60;0.40;;;20.80;59.20;;;;;;5013837;28;20077;-67
2021/12/20 07:09:23;;;;;;;0.40;0.40;;;20.80;59.20;;;;;;5013803;28;20034;-66
2021/12/20 07:11:49;;;;;;;0.35;0.35;;;20.80;59.20;;;;;;4994888;28;20441;-66
2021/12/20 07:14:14;;;;;;;0.77;0.40;;;20.80;59.20;;;;;;5011670;28;20068;-67
2021/12/20 07:16:40;;;;;;;0.40;0.40;;;20.80;59.20;;;;;;5006419;28;20052;-66
2021/12/20 07:19:06;;;;;;;0.88;0.40;;;20.80;59.20;;;;;;5000896;28;20026;-67
2021/12/20 07:21:31;;;;;;;0.60;0.30;;;20.80;59.20;;;;;;4985091;28;20029;-67
2021/12/20 07:23:57;;;;;;;0.63;0.40;;;20.80;59.30;;;;;;5000229;28;20108;-67
2021/12/20 07:26:23;;;;;;;0.45;0.45;;;20.80;59.30;;;;;;5001175;28;20072;-66
2021/12/20 07:28:48;;;;;;;0.47;0.40;;;20.80;59.20;;;;;;5008427;28;20603;-67
2021/12/20 07:31:14;;;;;;;0.88;0.40;;;20.80;59.20;;;;;;4996509;28;20026;-67
2021/12/20 07:33:40;;;;;;;0.40;0.40;;;20.80;59.20;;;;;;4989992;28;20026;-67
2021/12/20 07:36:06;;;;;;;0.57;0.30;;;20.80;59.20;;;;;;5002382;28;20025;-67
2021/12/20 07:38:31;;;;;;;0.40;0.40;;;20.80;59.20;;;;;;4998870;28;20026;-66
2021/12/20 07:40:57;;;;;;;0.40;0.40;;;20.80;59.20;;;;;;4975398;28;20026;-67
2021/12/20 07:43:23;;;;;;;0.40;0.40;;;20.80;59.20;;;;;;4992011;28;20025;-66
2021/12/20 07:45:49;;;;;;;0.40;0.40;;;20.80;59.20;;;;;;5010262;28;20034;-67
2021/12/20 07:48:18;;;;;;;0.43;0.38;;;20.80;59.20;;;;;;5002711;28;20393;-66
2021/12/20 07:50:44;;;;;;;0.47;0.32;;;20.80;59.20;;;;;;4989755;28;20026;-66
2021/12/20 07:53:09;;;;;;;1.20;0.40;;;20.80;59.20;;;;;;4994630;28;20496;-67
2021/12/20 07:55:35;;;;;;;0.50;0.50;;;20.80;59.20;;;;;;5006856;28;20022;-67
2021/12/20 07:58:01;;;;;;;0.43;0.30;;;20.80;59.20;;;;;;4999808;28;20014;-67
2021/12/20 08:00:26;;;;;;;0.82;0.40;;;20.80;59.20;;;;;;5001069;28;20034;-67
2021/12/20 08:02:53;;;;;;;0.35;0.35;;;20.80;59.20;;;;;;5000383;28;20023;-67
2021/12/20 08:05:19;;;;;;;0.30;0.30;;;20.80;59.20;;;;;;4991523;28;20574;-67
2021/12/20 08:07:47;;;;;;;0.40;0.40;;;20.80;59.30;;;;;;4996905;28;20558;-67
2021/12/20 08:10:13;;;;;;;0.30;0.30;;;20.80;59.30;;;;;;5003011;28;20054;-67
2021/12/20 08:12:38;;;;;;;0.75;0.40;;;20.80;59.30;;;;;;5005701;28;20056;-67
2021/12/20 08:15:04;;;;;;;0.55;0.40;;;20.80;59.30;;;;;;4996047;28;20034;-67
2021/12/20 08:17:31;;;;;;;1.40;0.80;;;20.80;59.30;;;;;;4995250;28;20403;-66
2021/12/20 08:19:57;;;;;;;0.90;0.50;;;20.80;59.30;;;;;;5010352;28;20393;-67
2021/12/20 08:22:25;;;;;;;0.40;0.40;;;20.80;59.30;;;;;;5000538;28;20010;-67
2021/12/20 08:24:51;;;;;;;1.08;0.30;;;20.80;59.30;;;;;;5005895;28;20045;-67
2021/12/20 08:27:17;;;;;;;3.33;0.65;;;20.80;59.30;;;;;;4995797;28;20022;-67
2021/12/20 08:29:42;;;;;;;0.50;0.40;;;20.80;59.30;;;;;;5007358;28;20054;-67
2021/12/20 08:32:08;;;;;;;0.50;0.40;;;20.80;59.30;;;;;;4999750;28;20022;-67
2021/12/20 08:34:34;;;;;;;0.55;0.50;;;20.80;59.30;;;;;;5000200;28;20080;-67
2021/12/20 08:37:01;;;;;;;0.40;0.40;;;20.80;59.40;;;;;;5007757;28;20447;-67
2021/12/20 08:39:28;;;;;;;1.25;0.63;;;20.80;59.30;;;;;;4997790;28;20113;-67
2021/12/20 08:41:54;;;;;;;0.50;0.38;;;20.80;59.40;;;;;;5008772;28;20504;-67
2021/12/20 08:44:20;;;;;;;0.98;0.40;;;20.80;59.40;;;;;;5000450;28;20022;-67
2021/12/20 08:46:45;;;;;;;0.30;0.30;;;20.80;59.30;;;;;;4979736;28;20105;-67
2021/12/20 08:49:11;;;;;;;0.30;0.30;;;20.80;59.30;;;;;;5010851;28;20057;-67
2021/12/20 08:51:37;;;;;;;0.45;0.45;;;20.80;59.40;;;;;;4998918;28;20380;-67
2021/12/20 08:54:03;;;;;;;0.85;0.38;;;20.80;59.40;;;;;;5007603;28;20049;-67
2021/12/20 08:56:29;;;;;;;0.30;0.30;;;20.80;59.40;;;;;;5006066;28;20022;-66
2021/12/20 08:58:54;;;;;;;0.43;0.40;;;20.80;59.40;;;;;;5000640;28;20026;-67
2021/12/20 09:01:21;;;;;;;0.30;0.30;;;20.80;59.40;;;;;;5012208;28;20550;-66
2021/12/20 09:03:46;;;;;;;1.13;0.45;;;20.80;59.30;;;;;;5006906;28;20021;-67
2021/12/20 09:06:13;;;;;;;0.57;0.40;;;20.80;59.50;;;;;;5004440;28;20061;-66
2021/12/20 09:08:40;;;;;;;0.50;0.50;;;20.80;59.40;;;;;;4986717;28;20030;-82
2021/12/20 09:11:06;;;;;;;0.43;0.43;;;20.80;59.30;;;;;;5002097;28;20020;-80
2021/12/20 09:13:31;;;;;;;0.57;0.40;;;20.80;59.40;;;;;;5005547;28;20112;-79
2021/12/20 09:15:59;;;;;;;0.45;0.40;;;20.80;59.40;;;;;;5015467;28;20480;-78
2021/12/20 09:18:28;;;;;;;0.55;0.50;;;20.80;59.50;;;;;;5013470;28;20026;-77
2021/12/20 09:20:56;;;;;;;0.52;0.50;;;20.90;59.60;;;;;;5012132;28;20080;-77
2021/12/20 09:23:22;;;;;;;0.52;0.50;;;20.90;59.60;;;;;;5011740;28;20053;-78
2021/12/20 09:25:48;;;;;;;0.30;0.30;;;20.90;59.60;;;;;;5014996;28;20018;-80
2021/12/20 09:28:14;;;;;;;0.40;0.40;;;20.90;59.50;;;;;;4997695;28;20026;-80
2021/12/20 09:30:41;;;;;;;0.55;0.38;;;21.00;59.50;;;;;;4997645;28;20026;-79
2021/12/20 09:33:06;;;;;;;0.40;0.40;;;21.00;59.50;;;;;;5013393;28;20454;-82
2021/12/20 09:35:33;;;;;;;0.70;0.50;;;21.00;59.50;;;;;;4996876;28;20105;-80
2021/12/20 09:37:58;;;;;;;0.77;0.40;;;21.00;59.50;;;;;;4997604;28;20017;-78
2021/12/20 09:40:37;;;;;;;0.55;0.50;;;21.00;59.50;;;;;;5013466;28;20472;-78
2021/12/20 09:43:10;;;;;;;0.40;0.40;;;21.00;59.40;;;;;;4997583;28;20042;-79
2021/12/20 09:45:36;;;;;;;0.73;0.60;;;21.10;59.40;;;;;;4996829;28;20400;-79
2021/12/20 09:48:02;;;;;;;2.00;0.40;;;21.10;59.50;;;;;;5013474;28;20034;-81
2021/12/20 09:50:27;;;;;;;0.70;0.50;;;21.10;59.30;;;;;;5011568;28;20026;-83
2021/12/20 09:52:53;;;;;;;0.55;0.43;;;21.10;59.30;;;;;;4997303;28;20499;-71
2021/12/20 09:55:19;;;;;;;0.40;0.40;;;21.10;59.20;;;;;;5014847;28;20018;-85
2021/12/20 09:57:46;;;;;;;0.75;0.28;;;21.10;59.20;;;;;;4997610;28;20025;-87
2021/12/20 10:00:13;;;;;;;0.60;0.50;;;21.20;59.30;;;;;;4995994;28;20496;-84
2021/12/20 10:02:39;;;;;;;0.57;0.40;;;21.20;59.30;;;;;;5007465;28;20473;-82
2021/12/20 10:05:05;;;;;;;1.05;0.55;;;21.30;59.30;;;;;;5007495;28;20056;-82
2021/12/20 10:07:31;;;;;;;0.35;0.35;;;21.30;59.20;;;;;;5012620;28;20065;-74
2021/12/20 10:10:00;;;;;;;0.65;0.50;;;21.30;59.20;;;;;;5012520;28;20076;-78
2021/12/20 10:12:26;;;;;;;0.40;0.40;;;21.30;59.10;;;;;;5013114;28;20109;-77
2021/12/20 10:15:07;;;;;;;0.40;0.30;;;21.30;59.10;;;;;;4992662;28;20015;-77
2021/12/20 10:17:50;;;;;;;0.43;0.40;;;21.30;59.10;;;;;;5002761;28;20050;-78
2021/12/20 10:20:22;;;;;;;0.52;0.30;;;21.40;60.10;;;;;;5005406;28;20022;-77
2021/12/20 10:22:47;;;;;;;0.52;0.40;;;21.30;59.10;;;;;;5005167;28;20030;-77
2021/12/20 10:25:43;;;;;;;0.30;0.30;;;21.30;59.10;;;;;;4997154;28;20025;-77
2021/12/20 10:28:10;;;;;;;0.40;0.40;;;21.40;58.80;;;;;;4988131;28;20041;-76
2021/12/20 10:30:38;;;;;;;0.40;0.40;;;21.30;59.10;;;;;;4996451;28;20084;-76
2021/12/20 10:33:04;;;;;;;0.47;0.40;;;21.40;59.00;;;;;;5007774;28;20050;-77
2021/12/20 10:35:38;;;;;;;0.30;0.30;;;21.40;59.00;;;;;;5003443;28;20022;-76
2021/12/20 10:38:07;;;;;;;0.32;0.32;;;21.40;58.90;;;;;;4989319;28;20036;-76
2021/12/20 10:40:34;;;;;;;0.40;0.22;;;21.40;58.90;;;;;;5012934;28;20019;-76
2021/12/20 10:43:05;;;;;;;0.30;0.30;;;21.40;58.90;;;;;;4984479;28;20034;-76
2021/12/20 10:45:30;;;;;;;0.20;0.20;;;21.50;58.90;;;;;;4991675;28;20057;-77
2021/12/20 10:47:57;;;;;;;0.93;0.40;;;21.50;58.90;;;;;;5014274;28;20056;-77
2021/12/20 10:50:34;;;;;;;1.35;0.30;;;21.50;58.80;;;;;;4989472;28;20015;-77
2021/12/20 10:53:11;;;;;;;0.57;0.32;;;21.50;58.70;;;;;;4990178;28;20109;-76
2021/12/20 10:55:39;;;;;;;1.02;0.32;;;21.50;58.70;;;;;;5014251;28;20141;-76
2021/12/20 10:58:19;;;;;;;1.15;0.47;;;21.50;58.70;;;;;;4996573;28;20057;-77
2021/12/20 11:00:46;;;;;;;0.30;0.30;;;21.60;58.80;;;;;;5012495;28;20018;-78
2021/12/20 11:05:56;;;;;;;0.35;0.35;;;21.60;58.90;;;;;;5011547;28;20044;-79
2021/12/20 11:11:14;;;;;;;0.40;0.40;;;21.60;58.70;;;;;;4980183;28;20084;-77
2021/12/20 11:13:39;;;;;;;0.20;0.20;;;21.60;58.70;;;;;;5011228;28;20116;-77
2021/12/20 11:16:31;;;;;;;0.57;0.30;;;21.60;58.70;;;;;;4974953;28;20065;-79
2021/12/20 11:19:21;;;;;;;0.47;0.47;;;21.60;58.40;;;;;;5008278;28;20023;-69
2021/12/20 11:21:55;;;;;;;2.70;2.50;;;21.60;57.80;;;;;;5008076;28;20025;-69
2021/12/20 11:24:25;;;;;;;3.40;3.20;;;21.50;55.80;;;;;;5007133;28;20408;-69
2021/12/20 11:26:51;;;;;;;3.95;3.75;;;21.20;54.30;;;;;;5011542;28;20022;-69
2021/12/20 11:29:17;;;;;;;4.22;3.85;;;21.00;54.00;;;;;;5003064;28;20420;-69
2021/12/20 11:31:43;;;;;;;4.38;4.07;;;20.80;54.20;;;;;;5010705;28;20017;-69
2021/12/20 11:34:09;;;;;;;4.68;4.38;;;20.60;54.00;;;;;;5011279;28;20025;-69
2021/12/20 11:36:35;;;;;;;4.60;4.30;;;20.50;54.00;;;;;;5011957;28;20022;-67
2021/12/20 11:39:02;;;;;;;4.88;4.57;;;20.40;53.30;;;;;;5010700;28;20499;-68
2021/12/20 11:41:28;;;;;;;5.13;4.72;;;20.20;53.00;;;;;;5012349;28;20504;-69
2021/12/20 11:43:54;;;;;;;4.72;4.43;;;20.10;53.60;;;;;;4983207;28;20026;-69
2021/12/20 11:46:21;;;;;;;5.03;4.68;;;20.00;53.90;;;;;;4997850;28;20035;-69
2021/12/20 11:48:46;;;;;;;6.90;6.30;;;19.80;52.90;;;;;;4981838;28;20018;-69
2021/12/20 11:51:12;;;;;;;5.47;5.07;;;19.70;53.00;;;;;;5003823;28;20121;-69
2021/12/20 11:53:40;;;;;;;5.43;5.03;;;19.60;53.30;;;;;;4997633;28;20023;-69
2021/12/20 11:56:06;;;;;;;4.78;4.47;;;19.50;52.50;;;;;;5005980;28;20015;-69
2021/12/20 11:58:32;;;;;;;4.68;4.38;;;19.30;51.90;;;;;;5000083;28;20041;-69
2021/12/20 12:00:59;;;;;;;5.10;4.70;;;19.20;52.00;;;;;;5003207;28;20022;-69
2021/12/20 12:03:29;;;;;;;5.07;4.63;;;19.10;51.90;;;;;;5008763;28;20093;-69
2021/12/20 12:05:56;;;;;;;5.00;4.70;;;19.00;51.60;;;;;;4983198;28;20050;-69
2021/12/20 12:08:34;;;;;;;4.57;4.18;;;18.80;51.80;;;;;;5003136;28;20024;-69
2021/12/20 12:11:09;;;;;;;4.57;4.28;;;18.70;52.30;;;;;;5002921;28;20551;-69
2021/12/20 12:13:47;;;;;;;4.93;4.57;;;18.60;52.10;;;;;;5002253;28;20029;-69
2021/12/20 12:16:37;;;;;;;5.35;4.95;;;18.50;51.30;;;;;;5004264;28;20021;-69
2021/12/20 12:19:02;;;;;;;5.38;4.93;;;18.40;51.50;;;;;;5006777;28;21167;-68
2021/12/20 12:21:31;;;;;;;5.80;5.18;;;18.30;51.20;;;;;;5002245;28;20034;-69
2021/12/20 12:23:57;;;;;;;5.75;5.22;;;18.20;51.30;;;;;;5002239;28;20415;-68
2021/12/20 12:26:29;;;;;;;7.82;4.93;;;18.10;51.50;;;;;;5004794;28;20020;-68
2021/12/20 12:28:55;;;;;;;6.05;5.05;;;18.10;51.50;;;;;;4985118;28;20034;-68
2021/12/20 12:31:21;;;;;;;5.55;4.47;;;18.10;51.80;;;;;;4988078;28;20484;-68
2021/12/20 12:33:47;;;;;;;6.25;4.82;;;18.10;51.70;;;;;;4991735;28;20034;-69
2021/12/20 12:36:30;;;;;;;9.82;4.50;;;18.00;51.70;;;;;;5002125;28;20468;-68
2021/12/20 12:39:00;;;;;;;4.95;4.43;;;18.00;52.30;;;;;;4983456;28;20037;-68
2021/12/20 12:41:31;;;;;;;4.93;4.53;;;18.00;51.80;;;;;;4975005;28;20029;-68
2021/12/20 12:44:03;;;;;;;5.00;4.50;;;18.00;51.70;;;;;;5004403;28;20133;-68
2021/12/20 12:46:35;;;;;;;;;;;17.90;51.60;;;;;;4995424;28;20105;-68
2021/12/20 12:49:19;;;;;;;4.32;3.92;;;17.80;50.80;;;;;;4992037;28;20388;-67
2021/12/20 12:51:45;;;;;;;5.47;3.85;;;17.70;51.90;;;;;;4997952;28;20054;-67
2021/12/20 12:54:25;;;;;;;4.35;3.95;;;17.70;51.80;;;;;;5007829;28;20109;-68
2021/12/20 12:56:51;;;;;;;4.85;4.00;;;17.70;51.70;;;;;;4977316;28;20050;-68
2021/12/20 12:59:19;;;;;;;4.55;4.03;;;17.70;51.70;;;;;;4979308;28;20022;-68
2021/12/20 13:01:56;;;;;;;5.72;4.35;;;17.70;51.50;;;;;;4992017;28;20677;-67
2021/12/20 13:04:44;;;;;;;5.00;4.35;;;17.70;51.30;;;;;;5000348;28;20014;-68
2021/12/20 13:07:11;;;;;;;5.05;4.55;;;17.70;51.40;;;;;;4979998;28;20049;-68
2021/12/20 13:09:43;;;;;;;4.32;3.90;;;17.60;51.30;;;;;;4999614;28;20053;-68